createdAt,value
2019-03-17T00:00:17.837Z,67.95
2019-03-17T00:02:46.522Z,68.28
2019-03-17T00:05:15.148Z,69.00
2019-03-17T00:07:43.650Z,68.73
2019-03-17T00:10:12.671Z,68.65
2019-03-17T00:12:41.306Z,68.75
2019-03-17T00:15:10.160Z,68.89
2019-03-17T00:17:41.733Z,68.96
2019-03-17T00:20:09.241Z,69.14
2019-03-17T00:22:37.865Z,69.34
2019-03-17T00:25:09.560Z,69.69
2019-03-17T00:27:37.116Z,70.24
2019-03-17T00:30:08.843Z,70.04
2019-03-17T00:32:37.703Z,69.87
2019-03-17T00:35:07.244Z,69.80
2019-03-17T00:37:35.728Z,69.57
2019-03-17T00:40:09.492Z,69.08
2019-03-17T00:42:38.143Z,69.83
2019-03-17T00:45:11.758Z,70.31
2019-03-17T00:47:40.681Z,70.30
2019-03-17T00:50:12.838Z,69.85
2019-03-17T00:52:41.399Z,70.07
2019-03-17T00:55:10.174Z,69.40
2019-03-17T00:57:38.811Z,69.07
2019-03-17T01:00:10.340Z,69.32
2019-03-17T01:02:38.935Z,69.30
2019-03-17T01:05:07.681Z,68.92
2019-03-17T01:07:36.299Z,68.87
2019-03-17T01:10:06.815Z,68.77
2019-03-17T01:12:35.377Z,68.75
2019-03-17T01:15:05.594Z,68.70
2019-03-17T01:17:34.232Z,69.10
2019-03-17T01:20:02.800Z,69.84
2019-03-17T01:22:31.579Z,69.67
2019-03-17T01:25:00.360Z,69.71
2019-03-17T01:27:28.948Z,70.26
2019-03-17T01:29:58.460Z,70.54
2019-03-17T01:32:27.014Z,70.79
2019-03-17T01:35:08.253Z,71.52
2019-03-17T01:37:27.036Z,71.95
2019-03-17T01:39:55.532Z,72.13
2019-03-17T01:42:24.107Z,72.58
2019-03-17T01:44:52.771Z,72.77
2019-03-17T01:47:21.339Z,72.73
2019-03-17T01:49:49.814Z,72.91
2019-03-17T01:52:18.667Z,73.20
2019-03-17T01:54:47.293Z,73.46
2019-03-17T01:57:15.860Z,73.68
2019-03-17T01:59:44.621Z,73.89
2019-03-17T02:02:13.315Z,74.47
2019-03-17T02:04:41.798Z,74.73
2019-03-17T02:07:10.388Z,74.89
2019-03-17T02:09:39.014Z,74.93
2019-03-17T02:12:07.607Z,75.10
2019-03-17T02:14:36.288Z,75.30
2019-03-17T02:17:04.915Z,75.14
2019-03-17T02:19:33.547Z,74.75
2019-03-17T02:22:02.145Z,74.91
2019-03-17T02:24:31.007Z,74.98
2019-03-17T02:26:59.568Z,75.21
2019-03-17T02:29:28.442Z,75.53
2019-03-17T02:31:57.001Z,75.77
2019-03-17T02:34:25.512Z,76.08
2019-03-17T02:36:54.088Z,74.89
2019-03-17T02:39:26.225Z,73.74
2019-03-17T02:41:53.847Z,72.47
2019-03-17T02:44:22.530Z,72.18
2019-03-17T02:46:51.088Z,72.38
2019-03-17T02:49:19.572Z,72.37
2019-03-17T02:51:48.103Z,72.32
2019-03-17T02:54:16.735Z,72.28
2019-03-17T02:56:45.390Z,72.39
2019-03-17T02:59:13.922Z,72.26
2019-03-17T03:01:42.661Z,72.11
2019-03-17T03:04:11.304Z,72.32
2019-03-17T03:06:39.903Z,72.47
2019-03-17T03:09:08.529Z,72.74
2019-03-17T03:11:37.085Z,72.73
2019-03-17T03:14:05.760Z,72.82
2019-03-17T03:16:34.328Z,72.54
2019-03-17T03:19:02.883Z,72.84
2019-03-17T03:21:31.630Z,73.31
2019-03-17T03:24:00.170Z,73.99
2019-03-17T03:26:28.679Z,74.12
2019-03-17T03:28:57.614Z,74.47
2019-03-17T03:31:26.270Z,74.56
2019-03-17T03:33:54.738Z,74.93
2019-03-17T03:36:23.513Z,75.44
2019-03-17T03:38:52.262Z,75.44
2019-03-17T03:41:20.821Z,75.96
2019-03-17T03:43:49.344Z,76.01
2019-03-17T03:46:17.905Z,76.32
2019-03-17T03:48:46.554Z,76.59
2019-03-17T03:51:15.294Z,76.74
2019-03-17T03:53:43.791Z,76.80
2019-03-17T03:56:12.376Z,76.70
2019-03-17T03:58:41.053Z,76.26
2019-03-17T04:01:09.599Z,75.53
2019-03-17T04:03:38.244Z,74.92
2019-03-17T04:06:07.068Z,74.21
2019-03-17T04:08:35.555Z,73.27
2019-03-17T04:11:04.124Z,72.29
2019-03-17T04:13:32.786Z,71.91
2019-03-17T04:16:01.341Z,71.48
2019-03-17T04:18:29.820Z,71.00
2019-03-17T04:20:58.572Z,71.04
2019-03-17T04:23:27.195Z,71.12
2019-03-17T04:25:55.829Z,71.13
2019-03-17T04:28:24.424Z,71.03
2019-03-17T04:30:52.988Z,70.72
2019-03-17T04:33:21.645Z,70.66
2019-03-17T04:35:50.505Z,70.33
2019-03-17T04:38:19.065Z,69.62
2019-03-17T04:40:47.722Z,69.21
2019-03-17T04:43:16.246Z,68.86
2019-03-17T04:45:44.910Z,68.17
2019-03-17T04:48:13.537Z,67.27
2019-03-17T04:50:42.148Z,67.85
2019-03-17T04:53:10.708Z,69.42
2019-03-17T04:55:39.274Z,72.19
2019-03-17T04:58:07.932Z,73.29
2019-03-17T05:00:36.494Z,74.14
2019-03-17T05:03:04.992Z,72.99
2019-03-17T05:05:33.585Z,71.53
2019-03-17T05:08:02.216Z,70.33
2019-03-17T05:10:30.852Z,68.59
2019-03-17T05:12:59.385Z,67.97
2019-03-17T05:15:28.005Z,67.11
2019-03-17T05:17:56.585Z,66.39
2019-03-17T05:20:25.244Z,63.77
2019-03-17T05:22:53.878Z,62.18
2019-03-17T05:25:22.504Z,60.41
2019-03-17T05:27:51.109Z,57.25
2019-03-17T05:30:19.797Z,55.24
2019-03-17T05:32:48.434Z,51.33
2019-03-17T05:35:17.047Z,48.55
2019-03-17T05:37:45.583Z,46.30
2019-03-17T05:40:14.221Z,43.56
2019-03-17T05:42:42.884Z,43.41
2019-03-17T05:45:11.530Z,41.12
2019-03-17T05:47:40.095Z,41.29
2019-03-17T05:50:09.980Z,41.18
2019-03-17T05:52:38.605Z,39.74
2019-03-17T05:55:09.048Z,39.26
2019-03-17T05:57:37.652Z,38.18
2019-03-17T06:00:09.198Z,38.72
2019-03-17T06:02:37.699Z,37.18
2019-03-17T06:05:07.663Z,36.72
2019-03-17T06:07:36.300Z,36.41
2019-03-17T06:10:06.727Z,35.92
2019-03-17T06:12:35.363Z,34.80
2019-03-17T06:15:04.800Z,34.82
2019-03-17T06:17:33.427Z,34.85
2019-03-17T06:20:02.256Z,34.65
2019-03-17T06:22:30.757Z,33.54
2019-03-17T06:24:59.339Z,33.80
2019-03-17T06:27:28.043Z,35.39
2019-03-17T06:29:56.611Z,36.95
2019-03-17T06:32:25.109Z,36.58
2019-03-17T06:34:53.723Z,35.48
2019-03-17T06:37:31.047Z,36.02
2019-03-17T06:39:52.627Z,34.59
2019-03-17T06:42:21.120Z,33.59
2019-03-17T06:44:49.683Z,35.05
2019-03-17T06:47:18.603Z,34.97
2019-03-17T06:49:47.168Z,34.75
2019-03-17T06:52:15.684Z,33.91
2019-03-17T06:54:44.544Z,34.42
2019-03-17T06:57:13.189Z,33.85
2019-03-17T06:59:41.770Z,33.93
2019-03-17T07:02:10.295Z,32.07
2019-03-17T07:04:38.863Z,32.43
2019-03-17T07:07:07.566Z,30.84
2019-03-17T07:09:36.182Z,29.49
2019-03-17T07:12:04.808Z,28.91
2019-03-17T07:14:33.313Z,28.07
2019-03-17T07:17:01.981Z,30.46
2019-03-17T07:19:30.563Z,30.86
2019-03-17T07:21:59.202Z,31.10
2019-03-17T07:24:27.961Z,30.79
2019-03-17T07:26:56.442Z,30.92
2019-03-17T07:29:25.019Z,31.29
2019-03-17T07:31:53.710Z,30.62
2019-03-17T07:34:22.270Z,31.18
2019-03-17T07:36:50.768Z,30.80
2019-03-17T07:39:19.381Z,30.24
2019-03-17T07:41:48.009Z,29.66
2019-03-17T07:44:16.578Z,31.66
2019-03-17T07:46:45.257Z,32.98
2019-03-17T07:49:13.817Z,33.21
2019-03-17T07:51:42.448Z,32.45
2019-03-17T07:54:11.119Z,32.20
2019-03-17T07:56:39.680Z,32.68
2019-03-17T07:59:08.244Z,31.05
2019-03-17T08:01:36.774Z,30.95
2019-03-17T08:04:05.421Z,30.56
2019-03-17T08:06:34.057Z,31.59
2019-03-17T08:09:02.790Z,31.71
2019-03-17T08:11:31.312Z,30.73
2019-03-17T08:13:59.872Z,30.88
2019-03-17T08:16:28.544Z,30.96
2019-03-17T08:18:57.106Z,32.43
2019-03-17T08:21:25.616Z,33.94
2019-03-17T08:23:54.218Z,33.66
2019-03-17T08:26:22.859Z,35.15
2019-03-17T08:28:51.417Z,34.67
2019-03-17T08:31:19.960Z,35.49
2019-03-17T08:33:48.602Z,35.50
2019-03-17T08:36:17.166Z,36.74
2019-03-17T08:38:46.120Z,35.96
2019-03-17T08:41:14.766Z,35.03
2019-03-17T08:43:53.750Z,34.91
2019-03-17T08:46:13.729Z,36.82
2019-03-17T08:48:42.303Z,36.78
2019-03-17T08:51:10.952Z,36.34
2019-03-17T08:53:39.537Z,36.86
2019-03-17T08:56:08.086Z,36.22
2019-03-17T08:58:36.647Z,36.36
2019-03-17T09:01:05.321Z,36.55
2019-03-17T09:03:33.881Z,36.76
2019-03-17T09:06:02.444Z,36.09
2019-03-17T09:08:35.236Z,36.51
2019-03-17T09:11:01.392Z,36.03
2019-03-17T09:13:29.957Z,34.62
2019-03-17T09:15:58.587Z,33.91
2019-03-17T09:18:27.528Z,33.42
2019-03-17T09:20:56.017Z,32.32
2019-03-17T09:23:24.680Z,30.94
2019-03-17T09:25:53.312Z,30.34
2019-03-17T09:28:21.880Z,30.58
2019-03-17T09:30:50.490Z,30.32
2019-03-17T09:33:19.063Z,29.44
2019-03-17T09:35:47.746Z,29.05
2019-03-17T09:38:16.328Z,28.81
2019-03-17T09:40:44.834Z,28.27
2019-03-17T09:43:13.401Z,27.65
2019-03-17T09:45:42.062Z,26.83
2019-03-17T09:48:10.693Z,26.44
2019-03-17T09:50:39.258Z,25.52
2019-03-17T09:53:07.995Z,24.89
2019-03-17T09:55:36.553Z,24.28
2019-03-17T09:58:05.193Z,24.47
2019-03-17T10:00:33.857Z,23.96
2019-03-17T10:03:02.484Z,23.75
2019-03-17T10:05:31.045Z,23.34
2019-03-17T10:07:59.807Z,22.94
2019-03-17T10:10:28.438Z,22.24
2019-03-17T10:12:56.996Z,22.44
2019-03-17T10:15:25.609Z,21.98
2019-03-17T10:17:54.173Z,21.88
2019-03-17T10:20:22.797Z,22.16
2019-03-17T10:22:51.468Z,22.65
2019-03-17T10:25:19.959Z,22.60
2019-03-17T10:27:48.700Z,22.56
2019-03-17T10:30:21.018Z,22.50
2019-03-17T10:32:49.626Z,22.94
2019-03-17T10:35:18.258Z,23.79
2019-03-17T10:37:46.925Z,23.76
2019-03-17T10:40:19.565Z,23.18
2019-03-17T10:42:48.194Z,22.84
2019-03-17T10:45:16.900Z,22.69
2019-03-17T10:47:45.522Z,23.30
2019-03-17T10:50:24.394Z,23.76
2019-03-17T10:52:53.069Z,23.77
2019-03-17T10:55:21.714Z,23.90
2019-03-17T10:57:50.302Z,23.91
2019-03-17T11:00:20.040Z,23.84
2019-03-17T11:02:48.660Z,24.38
2019-03-17T11:05:17.562Z,24.63
2019-03-17T11:07:46.209Z,24.76
2019-03-17T11:10:15.245Z,24.80
2019-03-17T11:12:44.028Z,24.70
2019-03-17T11:15:17.755Z,24.94
2019-03-17T11:17:46.385Z,24.66
2019-03-17T11:20:15.340Z,23.86
2019-03-17T11:22:44.039Z,24.02
2019-03-17T11:25:20.143Z,24.64
2019-03-17T11:27:48.742Z,24.31
2019-03-17T11:30:19.352Z,24.12
2019-03-17T11:32:47.987Z,25.38
2019-03-17T11:35:16.747Z,25.54
2019-03-17T11:37:45.313Z,25.58
2019-03-17T11:40:15.903Z,25.57
2019-03-17T11:42:44.573Z,25.36
2019-03-17T11:45:14.201Z,25.67
2019-03-17T11:47:43.139Z,25.53
2019-03-17T11:50:19.191Z,25.35
2019-03-17T11:52:48.237Z,24.97
2019-03-17T11:55:16.870Z,24.86
2019-03-17T11:57:45.684Z,24.64
2019-03-17T12:00:19.892Z,24.63
2019-03-17T12:02:48.757Z,25.06
2019-03-17T12:05:17.390Z,24.56
2019-03-17T12:07:45.950Z,24.53
2019-03-17T12:10:16.752Z,24.87
2019-03-17T12:12:45.335Z,24.40
2019-03-17T12:15:22.281Z,25.73
2019-03-17T12:17:51.041Z,25.40
2019-03-17T12:20:19.764Z,24.63
2019-03-17T12:22:48.338Z,24.09
2019-03-17T12:25:18.216Z,24.78
2019-03-17T12:27:46.952Z,23.93
2019-03-17T12:30:18.488Z,23.49
2019-03-17T12:32:47.357Z,23.58
2019-03-17T12:35:16.096Z,23.15
2019-03-17T12:37:44.729Z,23.20
2019-03-17T12:40:13.329Z,23.55
2019-03-17T12:42:41.887Z,23.64
2019-03-17T12:45:11.524Z,23.68
2019-03-17T12:47:40.132Z,23.34
2019-03-17T12:50:13.915Z,22.59
2019-03-17T12:52:42.488Z,22.96
2019-03-17T12:55:11.253Z,22.95
2019-03-17T12:57:39.883Z,23.07
2019-03-17T13:00:19.816Z,23.23
2019-03-17T13:02:48.380Z,22.89
2019-03-17T13:05:17.018Z,22.80
2019-03-17T13:07:45.626Z,22.69
2019-03-17T13:10:16.756Z,22.83
2019-03-17T13:12:45.446Z,23.13
2019-03-17T13:15:14.130Z,22.81
2019-03-17T13:17:42.695Z,22.72
2019-03-17T13:20:13.734Z,23.03
2019-03-17T13:22:42.332Z,23.10
2019-03-17T13:25:12.163Z,23.28
2019-03-17T13:27:40.893Z,23.31
2019-03-17T13:30:17.618Z,23.15
2019-03-17T13:32:46.268Z,22.84
2019-03-17T13:35:15.187Z,22.51
2019-03-17T13:37:43.803Z,22.70
2019-03-17T13:40:27.686Z,22.80
2019-03-17T13:42:45.295Z,22.32
2019-03-17T13:45:14.271Z,21.86
2019-03-17T13:47:42.902Z,22.27
2019-03-17T13:50:21.825Z,22.17
2019-03-17T13:52:50.473Z,22.09
2019-03-17T13:55:19.089Z,22.16
2019-03-17T13:57:50.668Z,22.57
2019-03-17T14:00:19.409Z,22.89
2019-03-17T14:02:48.035Z,22.52
2019-03-17T14:05:16.707Z,22.46
2019-03-17T14:07:45.339Z,22.37
2019-03-17T14:10:18.044Z,21.95
2019-03-17T14:12:46.959Z,21.69
2019-03-17T14:15:15.997Z,22.07
2019-03-17T14:17:44.634Z,22.32
2019-03-17T14:20:21.185Z,22.31
2019-03-17T14:22:49.991Z,22.08
2019-03-17T14:25:24.444Z,22.07
2019-03-17T14:27:53.074Z,21.78
2019-03-17T14:30:21.705Z,21.96
2019-03-17T14:32:50.462Z,21.81
2019-03-17T14:35:21.474Z,22.03
2019-03-17T14:37:49.470Z,21.71
2019-03-17T14:40:18.509Z,21.75
2019-03-17T14:42:49.477Z,21.65
2019-03-17T14:45:18.512Z,21.61
2019-03-17T14:47:47.176Z,21.68
2019-03-17T14:50:24.524Z,21.69
2019-03-17T14:52:53.347Z,21.77
2019-03-17T14:55:22.002Z,21.51
2019-03-17T14:57:50.631Z,21.42
2019-03-17T15:00:20.418Z,21.76
2019-03-17T15:02:49.077Z,21.61
2019-03-17T15:05:17.708Z,21.75
2019-03-17T15:07:47.161Z,21.62
2019-03-17T15:10:20.394Z,21.68
2019-03-17T15:12:49.238Z,21.50
2019-03-17T15:15:19.110Z,21.41
2019-03-17T15:17:48.172Z,21.37
2019-03-17T15:20:19.108Z,21.72
2019-03-17T15:22:47.771Z,22.18
2019-03-17T15:25:16.496Z,21.60
2019-03-17T15:27:45.167Z,20.17
2019-03-17T15:30:27.783Z,19.17
2019-03-17T15:32:56.409Z,19.37
2019-03-17T15:35:25.146Z,19.06
2019-03-17T15:37:53.817Z,19.09
2019-03-17T15:40:22.658Z,19.07
2019-03-17T15:42:51.392Z,18.84
2019-03-17T15:45:21.285Z,18.71
2019-03-17T15:47:49.904Z,18.96
2019-03-17T15:50:25.887Z,18.60
2019-03-17T15:52:54.517Z,18.96
2019-03-17T15:55:23.159Z,19.29
2019-03-17T15:57:51.822Z,18.90
2019-03-17T16:00:27.294Z,18.96
2019-03-17T16:02:55.975Z,19.28
2019-03-17T16:05:24.753Z,19.30
2019-03-17T16:07:53.383Z,19.46
2019-03-17T16:10:23.957Z,19.92
2019-03-17T16:12:52.629Z,20.23
2019-03-17T16:15:21.251Z,20.44
2019-03-17T16:17:49.879Z,21.01
2019-03-17T16:20:20.740Z,21.46
2019-03-17T16:22:49.456Z,21.90
2019-03-17T16:25:38.217Z,22.81
2019-03-17T16:28:06.880Z,23.32
2019-03-17T16:30:35.768Z,23.70
2019-03-17T16:33:04.741Z,24.19
2019-03-17T16:35:33.381Z,24.85
2019-03-17T16:38:02.027Z,25.26
2019-03-17T16:40:34.711Z,25.89
2019-03-17T16:43:03.388Z,26.34
2019-03-17T16:45:32.022Z,26.74
2019-03-17T16:48:00.686Z,27.05
2019-03-17T16:50:29.328Z,27.43
2019-03-17T16:52:58.197Z,27.94
2019-03-17T16:55:26.864Z,28.34
2019-03-17T16:57:55.487Z,29.17
2019-03-17T17:00:25.028Z,29.54
2019-03-17T17:02:54.038Z,30.13
2019-03-17T17:05:24.728Z,30.61
2019-03-17T17:07:53.358Z,30.38
2019-03-17T17:10:24.200Z,29.69
2019-03-17T17:12:52.842Z,29.23
2019-03-17T17:15:27.260Z,29.42
2019-03-17T17:17:56.094Z,29.40
2019-03-17T17:20:27.492Z,29.87
2019-03-17T17:22:56.284Z,29.67
2019-03-17T17:25:24.927Z,29.29
2019-03-17T17:27:53.574Z,29.25
2019-03-17T17:30:22.583Z,29.29
2019-03-17T17:32:51.329Z,29.81
2019-03-17T17:35:19.980Z,29.66
2019-03-17T17:37:48.659Z,29.30
2019-03-17T17:40:24.427Z,29.02
2019-03-17T17:42:53.042Z,29.24
2019-03-17T17:45:25.407Z,29.68
2019-03-17T17:47:53.984Z,30.40
2019-03-17T17:50:27.585Z,30.72
2019-03-17T17:52:56.217Z,30.69
2019-03-17T17:55:24.872Z,31.20
2019-03-17T17:57:53.491Z,32.02
2019-03-17T18:00:24.205Z,31.95
2019-03-17T18:02:52.781Z,32.25
2019-03-17T18:05:21.372Z,32.55
2019-03-17T18:07:49.979Z,33.13
2019-03-17T18:10:19.528Z,33.57
2019-03-17T18:12:48.164Z,33.51
2019-03-17T18:15:21.819Z,33.04
2019-03-17T18:17:50.543Z,33.03
2019-03-17T18:20:19.197Z,33.72
2019-03-17T18:22:47.880Z,34.15
2019-03-17T18:25:19.229Z,33.49
2019-03-17T18:27:47.978Z,33.45
2019-03-17T18:30:18.632Z,33.45
2019-03-17T18:32:47.279Z,33.68
2019-03-17T18:35:15.930Z,34.24
2019-03-17T18:37:44.632Z,34.19
2019-03-17T18:40:22.752Z,34.55
2019-03-17T18:42:51.427Z,34.93
2019-03-17T18:45:24.263Z,35.24
2019-03-17T18:47:52.845Z,35.29
2019-03-17T18:50:21.684Z,35.40
2019-03-17T18:52:50.333Z,35.48
2019-03-17T18:55:19.171Z,35.56
2019-03-17T18:57:47.788Z,35.71
2019-03-17T19:00:26.435Z,35.90
2019-03-17T19:02:55.045Z,36.07
2019-03-17T19:05:23.699Z,36.44
2019-03-17T19:07:52.265Z,36.59
2019-03-17T19:10:21.446Z,36.45
2019-03-17T19:12:50.213Z,36.51
2019-03-17T19:15:22.116Z,36.67
2019-03-17T19:17:50.898Z,36.57
2019-03-17T19:20:20.537Z,36.90
2019-03-17T19:22:49.164Z,36.96
2019-03-17T19:25:19.049Z,37.42
2019-03-17T19:27:47.713Z,37.50
2019-03-17T19:30:18.220Z,37.34
2019-03-17T19:32:47.255Z,37.18
2019-03-17T19:35:15.934Z,37.09
2019-03-17T19:37:44.719Z,37.50
2019-03-17T19:40:15.463Z,37.99
2019-03-17T19:42:44.094Z,38.11
2019-03-17T19:45:13.036Z,37.79
2019-03-17T19:47:42.150Z,37.63
2019-03-17T19:50:15.589Z,37.77
2019-03-17T19:52:44.162Z,37.57
2019-03-17T19:55:13.049Z,37.63
2019-03-17T19:57:41.691Z,38.03
2019-03-17T20:00:15.478Z,38.52
2019-03-17T20:02:46.991Z,38.68
2019-03-17T20:05:14.849Z,38.82
2019-03-17T20:07:43.489Z,39.25
2019-03-17T20:10:21.010Z,39.84
2019-03-17T20:12:49.577Z,40.04
2019-03-17T20:15:18.219Z,40.19
2019-03-17T20:17:46.933Z,40.69
2019-03-17T20:20:15.783Z,40.67
2019-03-17T20:22:44.430Z,41.08
2019-03-17T20:25:13.400Z,40.83
2019-03-17T20:27:41.976Z,40.65
2019-03-17T20:30:15.451Z,41.20
2019-03-17T20:32:44.179Z,41.34
2019-03-17T20:35:13.648Z,41.68
2019-03-17T20:37:42.279Z,42.43
2019-03-17T20:40:18.733Z,42.47
2019-03-17T20:42:47.370Z,42.66
2019-03-17T20:45:16.397Z,42.63
2019-03-17T20:47:45.091Z,42.31
2019-03-17T20:50:17.576Z,43.33
2019-03-17T20:52:46.225Z,43.95
2019-03-17T20:55:14.939Z,42.68
2019-03-17T20:57:43.589Z,42.27
2019-03-17T21:00:16.966Z,43.38
2019-03-17T21:02:45.651Z,42.95
2019-03-17T21:05:14.416Z,43.07
2019-03-17T21:07:43.649Z,43.05
2019-03-17T21:10:19.596Z,43.18
2019-03-17T21:12:48.174Z,43.80
2019-03-17T21:15:20.765Z,44.19
2019-03-17T21:17:49.374Z,44.08
2019-03-17T21:20:19.344Z,44.13
2019-03-17T21:22:47.972Z,44.66
2019-03-17T21:25:16.638Z,45.84
2019-03-17T21:27:45.211Z,46.27
2019-03-17T21:30:21.723Z,46.50
2019-03-17T21:32:50.306Z,46.46
2019-03-17T21:35:18.957Z,45.93
2019-03-17T21:37:47.623Z,46.12
2019-03-17T21:40:16.377Z,45.62
2019-03-17T21:42:44.976Z,45.82
2019-03-17T21:45:14.354Z,46.18
2019-03-17T21:47:43.017Z,46.93
2019-03-17T21:50:14.036Z,47.04
2019-03-17T21:52:42.711Z,48.01
2019-03-17T21:55:12.247Z,48.20
2019-03-17T21:57:40.883Z,47.87
2019-03-17T22:00:14.747Z,47.36
2019-03-17T22:02:43.340Z,47.53
2019-03-17T22:05:12.882Z,48.26
2019-03-17T22:07:49.755Z,48.56
2019-03-17T22:10:16.195Z,49.30
2019-03-17T22:12:44.847Z,50.00
2019-03-17T22:15:18.328Z,50.49
2019-03-17T22:17:46.971Z,51.03
2019-03-17T22:20:15.803Z,51.24
2019-03-17T22:22:44.513Z,51.36
2019-03-17T22:25:14.049Z,52.26
2019-03-17T22:27:42.697Z,52.25
2019-03-17T22:30:19.985Z,52.60
2019-03-17T22:32:48.623Z,51.72
2019-03-17T22:35:17.559Z,52.68
2019-03-17T22:37:46.426Z,52.56
2019-03-17T22:40:16.838Z,52.66
2019-03-17T22:42:45.415Z,53.45
2019-03-17T22:45:15.104Z,54.04
2019-03-17T22:47:43.854Z,54.19
2019-03-17T22:50:13.585Z,54.51
2019-03-17T22:52:42.303Z,54.44
2019-03-17T22:55:11.168Z,53.74
2019-03-17T22:57:39.747Z,54.55
2019-03-17T23:00:18.644Z,55.78
2019-03-17T23:02:47.279Z,56.19
2019-03-17T23:05:15.947Z,56.58
2019-03-17T23:07:44.523Z,57.17
2019-03-17T23:10:13.454Z,57.83
2019-03-17T23:12:42.140Z,58.02
2019-03-17T23:15:12.685Z,58.08
2019-03-17T23:17:41.238Z,58.15
2019-03-17T23:20:14.746Z,59.01
2019-03-17T23:22:43.307Z,58.96
2019-03-17T23:25:12.478Z,59.12
2019-03-17T23:27:41.225Z,58.65
2019-03-17T23:30:18.062Z,57.95
2019-03-17T23:32:49.174Z,58.30
2019-03-17T23:35:16.989Z,58.10
2019-03-17T23:37:45.674Z,58.43
2019-03-17T23:40:15.706Z,57.72
2019-03-17T23:42:44.260Z,57.25
2019-03-17T23:45:13.359Z,57.23
2019-03-17T23:47:41.997Z,57.05
2019-03-17T23:50:15.114Z,56.62
2019-03-17T23:52:44.062Z,56.74
2019-03-17T23:55:13.918Z,58.68
2019-03-17T23:57:42.645Z,56.91
